Time;durP1;ratioP1;P1;durP2;ratioP2;P2;SDS_P1;SDS_P2;PMS_P1;PMS_P2;Temp;Humidity;BMP_temperature;BMP_pressure;BME280_temperature;BME280_humidity;BME280_pressure;Samples;Min_cycle;Max_cycle;Signal;HPM_P1;HPM_P2
2021/12/28 00:01:24;;;;;;;6.73;5.03;;;;;;;;;;5088075;28;20505;-57
2021/12/28 00:03:54;;;;;;;5.47;4.97;;;;;;;;;;5086699;28;20286;-56
2021/12/28 00:06:21;;;;;;;5.10;4.60;;;;;;;;;;5068024;28;20176;-56
2021/12/28 00:08:48;;;;;;;8.23;5.50;;;;;;;;;;5091459;28;20517;-55
2021/12/28 00:11:14;;;;;;;5.30;4.80;;;;;;;;;;5101050;28;20207;-57
2021/12/28 00:13:41;;;;;;;5.77;4.90;;;;;;;;;;5067250;28;20171;-56
2021/12/28 00:16:27;;;;;;;5.80;5.10;;;;;;;;;;5085878;28;20241;-56
2021/12/28 00:18:54;;;;;;;5.03;4.53;;;;;;;;;;5069429;28;20174;-56
2021/12/28 00:21:20;;;;;;;5.83;5.00;;;;;;;;;;5069038;28;20183;-56
2021/12/28 00:23:47;;;;;;;5.77;5.10;;;;;;;;;;5073631;28;20190;-56
2021/12/28 00:26:17;;;;;;;6.73;4.90;;;;;;;;;;5080846;28;20182;-56
2021/12/28 00:28:45;;;;;;;5.67;4.60;;;;;;;;;;5066347;28;20276;-56
2021/12/28 00:31:13;;;;;;;5.70;4.63;;;;;;;;;;5068655;28;20666;-56
2021/12/28 00:33:39;;;;;;;5.50;5.00;;;;;;;;;;5086574;28;20176;-56
2021/12/28 00:36:06;;;;;;;5.57;4.23;;;;;;;;;;5069077;28;20180;-57
2021/12/28 00:38:33;;;;;;;5.30;4.33;;;;;;;;;;5070450;28;20628;-55
2021/12/28 00:41:00;;;;;;;4.93;4.43;;;;;;;;;;5097646;28;20183;-56
2021/12/28 00:43:28;;;;;;;4.90;4.03;;;;;;;;;;5071736;28;20736;-56
2021/12/28 00:45:55;;;;;;;4.93;4.13;;;;;;;;;;5068643;28;20676;-56
2021/12/28 00:48:21;;;;;;;3.93;3.40;;;;;;;;;;5086953;28;20437;-56
2021/12/28 00:50:47;;;;;;;6.10;4.17;;;;;;;;;;5077886;28;20207;-57
2021/12/28 00:53:14;;;;;;;3.97;3.57;;;;;;;;;;5076668;28;20208;-56
2021/12/28 00:55:40;;;;;;;4.10;3.50;;;;;;;;;;5065860;28;20237;-57
2021/12/28 00:58:10;;;;;;;4.07;3.50;;;;;;;;;;5049434;28;20267;-57
2021/12/28 01:00:37;;;;;;;4.93;3.50;;;;;;;;;;5066573;28;20639;-55
2021/12/28 01:03:07;;;;;;;4.60;3.23;;;;;;;;;;5064681;28;20512;-56
2021/12/28 01:05:33;;;;;;;4.65;3.75;;;;;;;;;;5058848;28;20999;-56
2021/12/28 01:08:00;;;;;;;3.80;3.40;;;;;;;;;;5065436;28;20678;-56
2021/12/28 01:10:29;;;;;;;3.33;3.07;;;;;;;;;;5048895;28;20392;-56
2021/12/28 01:12:56;;;;;;;4.20;3.17;;;;;;;;;;5063925;28;20654;-56
2021/12/28 01:15:26;;;;;;;4.00;2.80;;;;;;;;;;5065663;28;20177;-55
2021/12/28 01:17:52;;;;;;;4.13;2.77;;;;;;;;;;5064112;28;20190;-55
2021/12/28 01:20:21;;;;;;;4.40;2.73;;;;;;;;;;5065980;28;20179;-56
2021/12/28 01:22:48;;;;;;;4.23;2.77;;;;;;;;;;5062515;28;20720;-55
2021/12/28 01:25:15;;;;;;;2.60;2.40;;;;;;;;;;5068112;28;20281;-56
2021/12/28 01:27:42;;;;;;;4.00;2.93;;;;;;;;;;5065142;28;20180;-56
2021/12/28 01:30:10;;;;;;;3.60;3.30;;;;;;;;;;5063859;28;20701;-56
2021/12/28 01:32:36;;;;;;;4.43;3.27;;;;;;;;;;5064041;28;20195;-55
2021/12/28 01:35:03;;;;;;;4.37;2.60;;;;;;;;;;5065008;28;20707;-55
2021/12/28 01:37:30;;;;;;;3.23;2.83;;;;;;;;;;5061767;28;20267;-56
2021/12/28 01:39:56;;;;;;;2.70;2.43;;;;;;;;;;5060425;28;20184;-56
2021/12/28 01:42:22;;;;;;;3.97;2.43;;;;;;;;;;5067277;28;20495;-56
2021/12/28 01:44:49;;;;;;;2.93;2.60;;;;;;;;;;5063433;28;20191;-56
2021/12/28 01:47:16;;;;;;;3.43;2.40;;;;;;;;;;5064130;28;20176;-55
2021/12/28 01:49:45;;;;;;;3.43;2.20;;;;;;;;;;5064956;28;20732;-55
2021/12/28 01:52:12;;;;;;;7.37;2.90;;;;;;;;;;5063416;28;20216;-56
2021/12/28 01:54:39;;;;;;;3.90;2.20;;;;;;;;;;5044651;28;20211;-55
2021/12/28 01:57:05;;;;;;;5.33;2.37;;;;;;;;;;5030881;28;20196;-55
2021/12/28 01:59:35;;;;;;;3.73;2.20;;;;;;;;;;5046935;28;20200;-55
2021/12/28 02:02:01;;;;;;;3.80;2.20;;;;;;;;;;5043877;28;20549;-55
2021/12/28 02:04:29;;;;;;;4.30;2.20;;;;;;;;;;5065027;28;20191;-56
2021/12/28 02:06:57;;;;;;;4.13;2.33;;;;;;;;;;5070884;28;20255;-55
2021/12/28 02:09:24;;;;;;;4.33;2.20;;;;;;;;;;5050065;28;20200;-55
2021/12/28 02:11:52;;;;;;;5.07;2.20;;;;;;;;;;5068744;28;20548;-56
2021/12/28 02:14:18;;;;;;;4.57;2.27;;;;;;;;;;5049915;28;20263;-55
2021/12/28 02:16:44;;;;;;;2.43;1.90;;;;;;;;;;5068613;28;20189;-55
2021/12/28 02:19:12;;;;;;;2.30;2.00;;;;;;;;;;5068721;28;20184;-55
2021/12/28 02:21:39;;;;;;;3.27;2.20;;;;;;;;;;5070292;28;20184;-56
2021/12/28 02:24:06;;;;;;;3.90;2.17;;;;;;;;;;5050391;28;20184;-57
2021/12/28 02:26:33;;;;;;;2.57;1.93;;;;;;;;;;5056987;28;20177;-56
2021/12/28 02:28:59;;;;;;;5.87;2.37;;;;;;;;;;5064761;28;20180;-56
2021/12/28 02:31:29;;;;;;;5.17;2.03;;;;;;;;;;5061998;28;20659;-54
2021/12/28 02:33:55;;;;;;;4.33;1.90;;;;;;;;;;5067303;28;20552;-55
2021/12/28 02:36:21;;;;;;;3.43;2.03;;;;;;;;;;5051930;28;20255;-56
2021/12/28 02:38:48;;;;;;;5.57;2.23;;;;;;;;;;5067868;28;20177;-56
2021/12/28 02:41:15;;;;;;;3.93;2.00;;;;;;;;;;5068913;28;20180;-55
2021/12/28 02:43:41;;;;;;;4.07;2.47;;;;;;;;;;5071557;28;20180;-55
2021/12/28 02:46:08;;;;;;;4.37;2.00;;;;;;;;;;5067896;28;20188;-57
2021/12/28 02:48:35;;;;;;;5.40;2.03;;;;;;;;;;5066728;28;20635;-55
2021/12/28 02:51:06;;;;;;;4.40;1.83;;;;;;;;;;5051060;28;20291;-55
2021/12/28 02:53:33;;;;;;;9.33;2.60;;;;;;;;;;5071160;28;20577;-55
2021/12/28 02:55:59;;;;;;;7.83;2.53;;;;;;;;;;5055464;28;20204;-56
2021/12/28 02:58:26;;;;;;;10.90;2.67;;;;;;;;;;5051229;28;20191;-56
2021/12/28 03:00:54;;;;;;;5.30;2.73;;;;;;;;;;5051025;28;20177;-55
2021/12/28 03:03:22;;;;;;;4.20;2.47;;;;;;;;;;5053550;28;20211;-55
2021/12/28 03:05:49;;;;;;;6.97;3.17;;;;;;;;;;5051870;28;20177;-56
2021/12/28 03:08:16;;;;;;;5.80;2.03;;;;;;;;;;5060770;28;20182;-56
2021/12/28 03:10:44;;;;;;;7.93;2.90;;;;;;;;;;5068969;28;20248;-56
2021/12/28 03:13:17;;;;;;;7.40;2.30;;;;;;;;;;5057088;28;20185;-56
2021/12/28 03:15:43;;;;;;;9.17;2.20;;;;;;;;;;5051604;28;20629;-57
2021/12/28 03:18:09;;;;;;;9.40;2.37;;;;;;;;;;5071284;28;20211;-55
2021/12/28 03:20:36;;;;;;;6.90;2.17;;;;;;;;;;5068054;28;20654;-55
2021/12/28 03:23:02;;;;;;;11.13;2.67;;;;;;;;;;5050594;28;20184;-56
2021/12/28 03:25:29;;;;;;;4.70;2.33;;;;;;;;;;5052222;28;20560;-56
2021/12/28 03:27:55;;;;;;;4.20;1.70;;;;;;;;;;5066991;28;20180;-56
2021/12/28 03:30:22;;;;;;;7.47;2.77;;;;;;;;;;5067165;28;20558;-55
2021/12/28 03:32:51;;;;;;;7.70;2.50;;;;;;;;;;5052048;28;20186;-56
2021/12/28 03:35:17;;;;;;;6.93;2.47;;;;;;;;;;5056324;28;20188;-55
2021/12/28 03:37:44;;;;;;;9.17;2.83;;;;;;;;;;5056755;28;20620;-55
2021/12/28 03:40:12;;;;;;;5.03;2.17;;;;;;;;;;5057710;28;20576;-55
2021/12/28 03:42:38;;;;;;;7.53;2.93;;;;;;;;;;5051183;28;20180;-55
2021/12/28 03:45:05;;;;;;;10.43;2.93;;;;;;;;;;5066685;28;20822;-55
2021/12/28 03:47:31;;;;;;;8.73;2.30;;;;;;;;;;5037887;28;20212;-55
2021/12/28 03:49:58;;;;;;;10.13;2.53;;;;;;;;;;5050454;28;20339;-55
2021/12/28 03:52:24;;;;;;;8.07;2.77;;;;;;;;;;5059631;28;20223;-55
2021/12/28 03:54:50;;;;;;;11.17;3.37;;;;;;;;;;5087604;28;20656;-56
2021/12/28 03:57:16;;;;;;;10.57;2.30;;;;;;;;;;5067915;28;20685;-55
2021/12/28 03:59:43;;;;;;;12.03;2.90;;;;;;;;;;5084341;28;20262;-57
2021/12/28 04:02:09;;;;;;;6.73;2.93;;;;;;;;;;5086372;28;20197;-55
2021/12/28 04:04:35;;;;;;;8.20;2.80;;;;;;;;;;5065988;28;20184;-55
2021/12/28 04:07:06;;;;;;;16.43;3.63;;;;;;;;;;5088460;28;20184;-55
2021/12/28 04:12:16;;;;;;;7.07;2.40;;;;;;;;;;5088532;28;20516;-56
2021/12/28 04:14:42;;;;;;;5.70;2.37;;;;;;;;;;5087273;28;20176;-56
2021/12/28 04:17:08;;;;;;;6.87;2.80;;;;;;;;;;5087237;28;20204;-55
2021/12/28 04:19:35;;;;;;;10.03;3.10;;;;;;;;;;5068156;28;20175;-55
2021/12/28 04:22:02;;;;;;;8.43;2.80;;;;;;;;;;5070355;28;20184;-55
2021/12/28 04:24:28;;;;;;;7.70;2.73;;;;;;;;;;5087668;28;20198;-55
2021/12/28 04:26:54;;;;;;;6.30;2.60;;;;;;;;;;5086875;28;20252;-55
2021/12/28 04:29:21;;;;;;;12.90;3.47;;;;;;;;;;5062739;28;20210;-55
2021/12/28 04:31:47;;;;;;;8.60;3.20;;;;;;;;;;5068525;28;20168;-57
2021/12/28 04:34:13;;;;;;;7.97;2.53;;;;;;;;;;5068346;28;20176;-56
2021/12/28 04:36:40;;;;;;;8.93;2.60;;;;;;;;;;5068996;28;20596;-56
2021/12/28 04:39:06;;;;;;;7.43;3.20;;;;;;;;;;5068035;28;20183;-56
2021/12/28 04:41:34;;;;;;;12.50;2.67;;;;;;;;;;5088002;28;20183;-55
2021/12/28 04:44:02;;;;;;;8.43;2.63;;;;;;;;;;5059200;28;20193;-55
2021/12/28 04:46:29;;;;;;;13.20;2.90;;;;;;;;;;5086166;28;20544;-55
2021/12/28 04:48:55;;;;;;;9.83;3.70;;;;;;;;;;5067400;28;20214;-55
2021/12/28 04:51:23;;;;;;;10.00;2.57;;;;;;;;;;5069197;28;20200;-55
2021/12/28 04:53:50;;;;;;;9.10;2.83;;;;;;;;;;5052645;28;20195;-56
2021/12/28 04:56:16;;;;;;;7.73;2.53;;;;;;;;;;5065377;28;20612;-55
2021/12/28 04:58:43;;;;;;;7.80;2.50;;;;;;;;;;5067148;28;20180;-57
2021/12/28 05:01:09;;;;;;;12.13;3.07;;;;;;;;;;5064557;28;20191;-56
2021/12/28 05:03:35;;;;;;;4.47;2.43;;;;;;;;;;5069920;28;20234;-55
2021/12/28 05:06:02;;;;;;;13.00;3.23;;;;;;;;;;5066881;28;20251;-54
2021/12/28 05:08:29;;;;;;;10.17;3.03;;;;;;;;;;5066351;28;20276;-54
2021/12/28 05:10:55;;;;;;;9.63;3.50;;;;;;;;;;5064539;28;20307;-55
2021/12/28 05:13:24;;;;;;;14.60;3.10;;;;;;;;;;5044003;28;20613;-54
2021/12/28 05:15:52;;;;;;;8.97;3.20;;;;;;;;;;5066249;28;20268;-54
2021/12/28 05:18:19;;;;;;;9.03;3.57;;;;;;;;;;5064538;28;20238;-55
2021/12/28 05:20:45;;;;;;;9.47;2.87;;;;;;;;;;5049486;28;20181;-55
2021/12/28 05:23:12;;;;;;;13.10;2.63;;;;;;;;;;5021885;28;20184;-55
2021/12/28 05:25:39;;;;;;;10.70;3.07;;;;;;;;;;5065413;28;20176;-55
2021/12/28 05:28:06;;;;;;;12.67;3.10;;;;;;;;;;5066973;28;20654;-55
2021/12/28 05:30:33;;;;;;;9.73;2.70;;;;;;;;;;5067094;28;20297;-55
2021/12/28 05:32:59;;;;;;;8.97;2.87;;;;;;;;;;5051116;28;20603;-55
2021/12/28 05:35:25;;;;;;;11.23;2.90;;;;;;;;;;5078043;28;20176;-55
2021/12/28 05:37:52;;;;;;;10.00;3.07;;;;;;;;;;5048566;28;20627;-55
2021/12/28 05:40:19;;;;;;;14.87;3.10;;;;;;;;;;5050903;28;20172;-55
2021/12/28 05:42:45;;;;;;;13.63;2.73;;;;;;;;;;5052633;28;20276;-55
2021/12/28 05:45:12;;;;;;;12.10;3.50;;;;;;;;;;5057120;28;20259;-55
2021/12/28 05:47:38;;;;;;;11.17;3.30;;;;;;;;;;5070060;28;20237;-55
2021/12/28 05:50:06;;;;;;;6.10;2.77;;;;;;;;;;5068065;28;20215;-55
2021/12/28 05:52:32;;;;;;;7.50;3.10;;;;;;;;;;5060127;28;20228;-56
2021/12/28 05:54:58;;;;;;;8.13;2.20;;;;;;;;;;5073070;28;20196;-54
2021/12/28 05:57:25;;;;;;;5.97;2.70;;;;;;;;;;5055141;28;20247;-54
2021/12/28 05:59:52;;;;;;;15.10;3.47;;;;;;;;;;5075025;28;20255;-55
2021/12/28 06:02:18;;;;;;;9.23;2.87;;;;;;;;;;5054184;28;20219;-55
2021/12/28 06:04:44;;;;;;;10.87;2.23;;;;;;;;;;5053870;28;20180;-55
2021/12/28 06:07:10;;;;;;;9.03;2.97;;;;;;;;;;5051982;28;20277;-54
2021/12/28 06:09:36;;;;;;;7.60;2.80;;;;;;;;;;5058691;28;20227;-55
2021/12/28 06:12:03;;;;;;;8.90;2.17;;;;;;;;;;5070366;28;20173;-55
2021/12/28 06:14:29;;;;;;;7.50;2.17;;;;;;;;;;5069849;28;20188;-55
2021/12/28 06:16:55;;;;;;;8.60;2.53;;;;;;;;;;5057293;28;20179;-56
2021/12/28 06:19:22;;;;;;;11.57;3.40;;;;;;;;;;5067695;28;20448;-55
2021/12/28 06:21:48;;;;;;;5.97;2.40;;;;;;;;;;5048047;28;20188;-55
2021/12/28 06:24:14;;;;;;;8.47;2.60;;;;;;;;;;5054889;28;20658;-56
2021/12/28 06:26:41;;;;;;;12.60;2.37;;;;;;;;;;5069712;28;20172;-55
2021/12/28 06:29:08;;;;;;;5.77;2.47;;;;;;;;;;5059361;28;20363;-55
2021/12/28 06:31:35;;;;;;;6.70;2.90;;;;;;;;;;5068112;28;20244;-55
2021/12/28 06:34:02;;;;;;;6.83;2.67;;;;;;;;;;5066957;28;20185;-55
2021/12/28 06:36:29;;;;;;;9.37;2.90;;;;;;;;;;5068578;28;20306;-55
2021/12/28 06:38:56;;;;;;;10.63;2.83;;;;;;;;;;5067587;28;20231;-56
2021/12/28 06:41:23;;;;;;;6.07;2.33;;;;;;;;;;5069090;28;20187;-55
2021/12/28 06:43:49;;;;;;;9.17;3.03;;;;;;;;;;5069160;28;20275;-55
2021/12/28 06:46:16;;;;;;;9.97;3.43;;;;;;;;;;5068479;28;20647;-55
2021/12/28 06:48:42;;;;;;;6.80;2.10;;;;;;;;;;5056394;28;20184;-55
2021/12/28 06:51:09;;;;;;;11.03;2.83;;;;;;;;;;5054121;28;20642;-55
2021/12/28 06:53:35;;;;;;;12.83;3.83;;;;;;;;;;5060903;28;20313;-55
2021/12/28 06:56:03;;;;;;;9.47;3.10;;;;;;;;;;5068798;28;20678;-54
2021/12/28 06:58:30;;;;;;;7.43;3.17;;;;;;;;;;5067963;28;20278;-55
2021/12/28 07:00:56;;;;;;;7.20;3.33;;;;;;;;;;5051482;28;20219;-56
2021/12/28 07:03:22;;;;;;;12.67;3.63;;;;;;;;;;5070059;28;20245;-55
2021/12/28 07:05:49;;;;;;;6.20;2.90;;;;;;;;;;5058142;28;20181;-55
2021/12/28 07:08:16;;;;;;;6.80;3.30;;;;;;;;;;5063854;28;20211;-55
2021/12/28 07:10:42;;;;;;;7.37;3.00;;;;;;;;;;5050920;28;20212;-55
2021/12/28 07:13:09;;;;;;;7.13;3.43;;;;;;;;;;5050952;28;20242;-55
2021/12/28 07:15:35;;;;;;;6.13;3.00;;;;;;;;;;5071997;28;20177;-55
2021/12/28 07:18:01;;;;;;;5.10;3.00;;;;;;;;;;5063790;28;20169;-55
2021/12/28 07:20:28;;;;;;;8.40;3.13;;;;;;;;;;5068400;28;20180;-55
2021/12/28 07:22:55;;;;;;;9.03;3.13;;;;;;;;;;5045637;28;20188;-55
2021/12/28 07:25:21;;;;;;;5.53;2.60;;;;;;;;;;5082205;28;20265;-55
2021/12/28 07:27:47;;;;;;;8.50;3.60;;;;;;;;;;5061821;28;20185;-55
2021/12/28 07:30:14;;;;;;;4.50;2.73;;;;;;;;;;5065562;28;20212;-55
2021/12/28 07:32:41;;;;;;;7.47;3.20;;;;;;;;;;5049620;28;20794;-55
2021/12/28 07:35:08;;;;;;;6.30;3.07;;;;;;;;;;5068417;28;20198;-55
2021/12/28 07:37:35;;;;;;;6.57;2.87;;;;;;;;;;5066135;28;20258;-54
2021/12/28 07:40:01;;;;;;;5.70;3.20;;;;;;;;;;5067788;28;20225;-56
2021/12/28 07:42:27;;;;;;;4.80;3.07;;;;;;;;;;5071361;28;20279;-55
2021/12/28 07:44:54;;;;;;;4.20;2.63;;;;;;;;;;5047166;28;20904;-55
2021/12/28 07:47:20;;;;;;;7.23;2.80;;;;;;;;;;5047743;28;20176;-56
2021/12/28 07:49:46;;;;;;;4.93;3.10;;;;;;;;;;5047294;28;20200;-55
2021/12/28 07:52:12;;;;;;;4.63;2.60;;;;;;;;;;5052801;28;20226;-55
2021/12/28 07:54:39;;;;;;;6.37;2.40;;;;;;;;;;5062549;28;20196;-55
2021/12/28 07:57:05;;;;;;;5.10;2.47;;;;;;;;;;5068376;28;20645;-55
2021/12/28 07:59:32;;;;;;;9.40;2.70;;;;;;;;;;5061201;28;20179;-55
2021/12/28 08:01:58;;;;;;;7.77;2.93;;;;;;;;;;5048936;28;20266;-55
2021/12/28 08:04:27;;;;;;;6.57;2.60;;;;;;;;;;5084151;28;20274;-56
2021/12/28 08:06:54;;;;;;;9.73;3.20;;;;;;;;;;5067603;28;20179;-56
2021/12/28 08:09:20;;;;;;;7.17;2.50;;;;;;;;;;5084445;28;20553;-56
2021/12/28 08:11:47;;;;;;;6.00;3.10;;;;;;;;;;5068247;28;20195;-55
2021/12/28 08:14:13;;;;;;;2.73;2.37;;;;;;;;;;5060699;28;20204;-55
2021/12/28 08:16:39;;;;;;;4.20;2.47;;;;;;;;;;5062346;28;20175;-55
2021/12/28 08:19:08;;;;;;;7.43;3.20;;;;;;;;;;5063576;28;20203;-55
2021/12/28 08:21:34;;;;;;;4.03;2.23;;;;;;;;;;5064447;28;20649;-55
2021/12/28 08:24:00;;;;;;;5.23;2.53;;;;;;;;;;5084938;28;20183;-55
2021/12/28 08:26:27;;;;;;;3.57;2.50;;;;;;;;;;5065936;28;20194;-55
2021/12/28 08:28:53;;;;;;;5.10;2.50;;;;;;;;;;5087912;28;20199;-55
2021/12/28 08:31:19;;;;;;;5.43;2.17;;;;;;;;;;5065799;28;20803;-55
2021/12/28 08:33:45;;;;;;;3.53;2.57;;;;;;;;;;5069157;28;20187;-55
2021/12/28 08:36:12;;;;;;;2.47;1.90;;;;;;;;;;5081156;28;20638;-56
2021/12/28 08:38:39;;;;;;;3.43;1.90;;;;;;;;;;5085255;28;20176;-55
2021/12/28 08:41:06;;;;;;;4.20;2.47;;;;;;;;;;5067964;28;20490;-55
2021/12/28 08:43:32;;;;;;;3.57;2.73;;;;;;;;;;5049773;28;20180;-56
2021/12/28 08:45:59;;;;;;;4.53;2.30;;;;;;;;;;5063210;28;20199;-57
2021/12/28 08:48:25;;;;;;;4.60;2.27;;;;;;;;;;5080982;28;20179;-55
2021/12/28 08:50:51;;;;;;;6.60;2.13;;;;;;;;;;5061772;28;20340;-54
2021/12/28 08:53:18;;;;;;;8.63;3.13;;;;;;;;;;5063198;28;20694;-57
2021/12/28 08:55:44;;;;;;;2.10;1.80;;;;;;;;;;5084902;28;20695;-56
2021/12/28 08:58:11;;;;;;;6.70;1.90;;;;;;;;;;5081185;28;20510;-55
2021/12/28 09:00:38;;;;;;;7.13;2.30;;;;;;;;;;5080495;28;20266;-57
2021/12/28 09:03:05;;;;;;;4.03;1.77;;;;;;;;;;5084104;28;20600;-55
2021/12/28 09:05:31;;;;;;;5.10;2.17;;;;;;;;;;5068896;28;20532;-56
2021/12/28 09:07:58;;;;;;;3.43;2.13;;;;;;;;;;5070349;28;20179;-57
2021/12/28 09:10:25;;;;;;;3.87;2.20;;;;;;;;;;5071417;28;20314;-57
2021/12/28 09:12:52;;;;;;;2.27;2.07;;;;;;;;;;5075944;28;20627;-56
2021/12/28 09:15:19;;;;;;;4.33;2.57;;;;;;;;;;5066326;28;20190;-57
2021/12/28 09:17:45;;;;;;;2.23;2.00;;;;;;;;;;5060729;28;20436;-56
2021/12/28 09:20:16;;;;;;;3.83;2.17;;;;;;;;;;5083199;28;20662;-56
2021/12/28 09:22:43;;;;;;;3.90;1.83;;;;;;;;;;5086984;28;20727;-56
2021/12/28 09:25:09;;;;;;;4.87;2.37;;;;;;;;;;5085333;28;20202;-56
2021/12/28 09:27:38;;;;;;;3.47;2.00;;;;;;;;;;5086741;28;20176;-55
2021/12/28 09:30:04;;;;;;;6.23;2.47;;;;;;;;;;5080640;28;20204;-56
2021/12/28 09:32:30;;;;;;;3.33;2.10;;;;;;;;;;5061040;28;20253;-56
2021/12/28 09:34:57;;;;;;;5.83;2.20;;;;;;;;;;5081845;28;20233;-57
2021/12/28 09:37:24;;;;;;;4.07;2.87;;;;;;;;;;5063864;28;20550;-55
2021/12/28 09:39:50;;;;;;;4.50;2.37;;;;;;;;;;5064273;28;20191;-56
2021/12/28 09:42:17;;;;;;;5.87;2.57;;;;;;;;;;5068744;28;20260;-56
2021/12/28 09:44:47;;;;;;;6.30;2.63;;;;;;;;;;5076277;28;20226;-57
2021/12/28 09:47:15;;;;;;;6.07;2.40;;;;;;;;;;5080898;28;20558;-57
2021/12/28 09:49:42;;;;;;;4.07;2.10;;;;;;;;;;5074534;28;20189;-57
2021/12/28 09:52:08;;;;;;;6.23;2.53;;;;;;;;;;5083307;28;20232;-57
2021/12/28 09:54:34;;;;;;;5.30;2.50;;;;;;;;;;5091299;28;20309;-57
2021/12/28 09:57:01;;;;;;;7.13;2.20;;;;;;;;;;5085365;28;20196;-55
2021/12/28 09:59:29;;;;;;;4.23;2.53;;;;;;;;;;5088943;28;20549;-56
2021/12/28 10:01:58;;;;;;;4.13;2.80;;;;;;;;;;5089793;28;20183;-55
2021/12/28 10:04:24;;;;;;;4.40;2.47;;;;;;;;;;5087061;28;20176;-56
2021/12/28 10:06:50;;;;;;;5.80;2.73;;;;;;;;;;5085783;28;20180;-56
2021/12/28 10:09:19;;;;;;;6.40;2.70;;;;;;;;;;5068234;28;20190;-55
2021/12/28 10:11:53;;;;;;;2.47;2.13;;;;;;;;;;5090318;28;20685;-56
2021/12/28 10:14:19;;;;;;;5.87;3.47;;;;;;;;;;5069489;28;20176;-56
2021/12/28 10:16:56;;;;;;;3.33;2.80;;;;;;;;;;5082408;28;20180;-56
2021/12/28 10:19:33;;;;;;;3.50;2.83;;;;;;;;;;5065259;28;20182;-56
2021/12/28 10:22:19;;;;;;;4.73;2.77;;;;;;;;;;5063165;28;20658;-57
2021/12/28 10:24:46;;;;;;;3.07;2.67;;;;;;;;;;5066111;28;20183;-57
2021/12/28 10:27:13;;;;;;;6.13;2.93;;;;;;;;;;5070835;28;20183;-58
2021/12/28 10:29:39;;;;;;;5.43;3.10;;;;;;;;;;5087715;28;20534;-57
2021/12/28 10:32:22;;;;;;;4.03;3.07;;;;;;;;;;5071073;28;20169;-55
2021/12/28 10:34:50;;;;;;;3.70;3.17;;;;;;;;;;5075270;28;20182;-56
2021/12/28 10:37:17;;;;;;;4.60;3.00;;;;;;;;;;5090380;28;20180;-55
2021/12/28 10:39:45;;;;;;;5.37;2.77;;;;;;;;;;5091911;28;20180;-57
2021/12/28 10:42:11;;;;;;;3.53;2.90;;;;;;;;;;5077287;28;20167;-55
2021/12/28 10:45:02;;;;;;;5.43;3.03;;;;;;;;;;5089366;28;20189;-55
2021/12/28 10:47:28;;;;;;;5.07;2.93;;;;;;;;;;5071709;28;20234;-56
2021/12/28 10:49:57;;;;;;;6.10;3.07;;;;;;;;;;5069638;28;20238;-56
2021/12/28 10:52:33;;;;;;;8.10;3.07;;;;;;;;;;5059587;28;20722;-57
2021/12/28 10:55:20;;;;;;;4.37;3.10;;;;;;;;;;5049276;28;20628;-57
2021/12/28 10:57:47;;;;;;;3.30;3.00;;;;;;;;;;5059688;28;20220;-56
2021/12/28 11:00:30;;;;;;;4.40;2.97;;;;;;;;;;5045839;28;20199;-56
2021/12/28 11:03:15;;;;;;;4.90;2.70;;;;;;;;;;5067116;28;20647;-55
2021/12/28 11:05:42;;;;;;;3.83;3.33;;;;;;;;;;5062053;28;20181;-55
2021/12/28 11:08:08;;;;;;;4.13;2.70;;;;;;;;;;5067993;28;20177;-56
2021/12/28 11:10:36;;;;;;;3.40;2.87;;;;;;;;;;5048815;28;20568;-55
2021/12/28 11:13:03;;;;;;;3.50;3.07;;;;;;;;;;5048513;28;20222;-55
2021/12/28 11:15:36;;;;;;;3.57;2.97;;;;;;;;;;5063527;28;20184;-55
2021/12/28 11:18:16;;;;;;;4.23;2.53;;;;;;;;;;5066987;28;20537;-56
2021/12/28 11:20:43;;;;;;;4.83;3.23;;;;;;;;;;5050621;28;20242;-56
2021/12/28 11:23:10;;;;;;;3.73;2.53;;;;;;;;;;5049691;28;20180;-55
2021/12/28 11:25:37;;;;;;;3.63;2.67;;;;;;;;;;5048615;28;20184;-56
2021/12/28 11:28:18;;;;;;;3.93;3.20;;;;;;;;;;5049438;28;20538;-56
2021/12/28 11:31:03;;;;;;;3.27;2.90;;;;;;;;;;5049835;28;20212;-54
2021/12/28 11:33:47;;;;;;;3.60;3.07;;;;;;;;;;5048296;28;20192;-56
2021/12/28 11:36:13;;;;;;;3.40;2.90;;;;;;;;;;5050134;28;20169;-56
2021/12/28 11:38:40;;;;;;;4.37;2.73;;;;;;;;;;5046778;28;20683;-56
2021/12/28 11:41:07;;;;;;;3.50;3.20;;;;;;;;;;5068411;28;20205;-56
2021/12/28 11:43:37;;;;;;;4.53;2.67;;;;;;;;;;5048683;28;20209;-55
2021/12/28 11:46:04;;;;;;;3.00;2.70;;;;;;;;;;5049692;28;20188;-55
2021/12/28 11:48:32;;;;;;;4.07;2.53;;;;;;;;;;5048353;28;20252;-55
2021/12/28 11:50:58;;;;;;;2.67;2.27;;;;;;;;;;5062234;28;20216;-55
2021/12/28 11:53:25;;;;;;;4.80;3.07;;;;;;;;;;5048362;28;20690;-56
2021/12/28 11:55:52;;;;;;;3.23;2.60;;;;;;;;;;5049118;28;20283;-57
2021/12/28 11:58:18;;;;;;;5.27;3.10;;;;;;;;;;5030775;28;20447;-57
2021/12/28 12:00:45;;;;;;;3.00;2.77;;;;;;;;;;5048429;28;20195;-56
2021/12/28 12:03:31;;;;;;;5.23;2.83;;;;;;;;;;5063693;28;20223;-57
2021/12/28 12:05:58;;;;;;;3.60;3.10;;;;;;;;;;5047391;28;20537;-57
2021/12/28 12:08:25;;;;;;;4.23;2.30;;;;;;;;;;5064833;28;20183;-56
2021/12/28 12:11:01;;;;;;;3.70;2.67;;;;;;;;;;5060389;28;21959;-56
2021/12/28 12:13:29;;;;;;;4.37;3.00;;;;;;;;;;5061012;28;20194;-57
2021/12/28 12:15:57;;;;;;;3.57;2.63;;;;;;;;;;5060206;28;20196;-57
2021/12/28 12:18:26;;;;;;;3.00;2.70;;;;;;;;;;5063267;28;20275;-57
2021/12/28 12:20:54;;;;;;;5.60;2.70;;;;;;;;;;5066417;28;20177;-57
2021/12/28 12:23:25;;;;;;;2.97;2.67;;;;;;;;;;5041790;28;20208;-57
2021/12/28 12:26:01;;;;;;;4.57;3.33;;;;;;;;;;5055995;28;20177;-57
2021/12/28 12:28:35;;;;;;;5.03;2.97;;;;;;;;;;5072106;28;20196;-57
2021/12/28 12:31:02;;;;;;;4.33;2.70;;;;;;;;;;5072404;28;20207;-57
2021/12/28 12:33:39;;;;;;;2.93;2.60;;;;;;;;;;5065187;28;20184;-57
2021/12/28 12:36:08;;;;;;;3.00;2.53;;;;;;;;;;5071671;28;20168;-57
2021/12/28 12:38:36;;;;;;;4.33;2.77;;;;;;;;;;5064984;28;20565;-57
2021/12/28 12:41:12;;;;;;;4.60;2.80;;;;;;;;;;5047485;28;20309;-56
2021/12/28 12:43:39;;;;;;;2.87;2.57;;;;;;;;;;5068549;28;20171;-57
2021/12/28 12:46:05;;;;;;;4.03;2.30;;;;;;;;;;5037439;28;20176;-57
2021/12/28 12:48:38;;;;;;;3.73;2.70;;;;;;;;;;5072482;28;20550;-57
2021/12/28 12:51:29;;;;;;;6.53;2.40;;;;;;;;;;5049671;28;20199;-56
2021/12/28 12:54:00;;;;;;;4.10;2.53;;;;;;;;;;5072560;28;20587;-56
2021/12/28 12:56:28;;;;;;;4.40;2.60;;;;;;;;;;5056876;28;20713;-56
2021/12/28 12:58:56;;;;;;;3.00;2.30;;;;;;;;;;5064109;28;20180;-56
2021/12/28 13:01:30;;;;;;;3.80;2.50;;;;;;;;;;5082861;28;20188;-56
2021/12/28 13:03:58;;;;;;;3.23;2.10;;;;;;;;;;5058276;28;20596;-56
2021/12/28 13:06:56;;;;;;;8.10;3.17;;;;;;;;;;5078862;28;20565;-56
2021/12/28 13:09:26;;;;;;;6.50;2.47;;;;;;;;;;5064563;28;20188;-56
2021/12/28 13:11:52;;;;;;;6.33;1.90;;;;;;;;;;5066554;28;20211;-56
2021/12/28 13:14:19;;;;;;;5.90;2.00;;;;;;;;;;5067122;28;20182;-55
2021/12/28 13:16:58;;;;;;;5.40;2.23;;;;;;;;;;5079886;28;20433;-55
2021/12/28 13:19:24;;;;;;;9.37;2.83;;;;;;;;;;5077286;28;20179;-56
2021/12/28 13:21:57;;;;;;;8.07;2.50;;;;;;;;;;5078156;28;20180;-55
2021/12/28 13:24:24;;;;;;;9.57;2.40;;;;;;;;;;5085135;28;20175;-57
2021/12/28 13:26:52;;;;;;;9.97;3.03;;;;;;;;;;5088707;28;20193;-57
2021/12/28 13:29:25;;;;;;;7.00;2.23;;;;;;;;;;5089235;28;20175;-57
2021/12/28 13:31:52;;;;;;;9.67;2.70;;;;;;;;;;5086972;28;20210;-56
2021/12/28 13:34:18;;;;;;;16.97;2.83;;;;;;;;;;5087224;28;20167;-55
2021/12/28 13:36:49;;;;;;;10.73;3.17;;;;;;;;;;5085047;28;20188;-55
2021/12/28 13:39:15;;;;;;;6.53;3.33;;;;;;;;;;5067411;28;20267;-55
2021/12/28 13:41:51;;;;;;;18.80;3.57;;;;;;;;;;5084893;28;20180;-56
2021/12/28 13:44:17;;;;;;;11.10;3.10;;;;;;;;;;5083706;28;20714;-55
2021/12/28 13:46:43;;;;;;;9.30;3.00;;;;;;;;;;5084111;28;20179;-56
2021/12/28 13:49:14;;;;;;;7.97;2.90;;;;;;;;;;5083111;28;20550;-56
2021/12/28 13:51:41;;;;;;;8.17;2.70;;;;;;;;;;5075770;28;20246;-56
2021/12/28 13:54:07;;;;;;;15.03;3.63;;;;;;;;;;5041253;28;20695;-56
2021/12/28 13:56:36;;;;;;;8.23;3.07;;;;;;;;;;5066928;28;20287;-56
2021/12/28 13:59:13;;;;;;;12.07;2.60;;;;;;;;;;5064087;28;20342;-56
2021/12/28 14:01:43;;;;;;;7.23;3.37;;;;;;;;;;5071024;28;20191;-54
2021/12/28 14:04:31;;;;;;;12.10;4.40;;;;;;;;;;5050134;28;20242;-55
2021/12/28 14:06:57;;;;;;;16.37;3.63;;;;;;;;;;5070613;28;20206;-54
2021/12/28 14:09:24;;;;;;;12.13;3.43;;;;;;;;;;5065670;28;20651;-54
2021/12/28 14:11:53;;;;;;;15.83;3.60;;;;;;;;;;5066767;28;20228;-57
2021/12/28 14:14:35;;;;;;;13.77;3.77;;;;;;;;;;5067429;28;20185;-57
2021/12/28 14:17:03;;;;;;;16.23;3.93;;;;;;;;;;5065446;28;20218;-57
2021/12/28 14:19:31;;;;;;;15.67;3.67;;;;;;;;;;5064547;28;20190;-57
2021/12/28 14:21:58;;;;;;;13.43;4.23;;;;;;;;;;5079854;28;20707;-58
2021/12/28 14:24:29;;;;;;;13.60;4.00;;;;;;;;;;5059723;28;20234;-58
2021/12/28 14:26:56;;;;;;;16.70;4.33;;;;;;;;;;5051610;28;20697;-58
2021/12/28 14:29:24;;;;;;;10.10;3.93;;;;;;;;;;5068138;28;20647;-57
2021/12/28 14:31:54;;;;;;;16.43;4.10;;;;;;;;;;5063627;28;20304;-57
2021/12/28 14:34:31;;;;;;;13.00;3.77;;;;;;;;;;5067160;28;20188;-57
2021/12/28 14:37:12;;;;;;;16.90;4.27;;;;;;;;;;5065655;28;20176;-57
2021/12/28 14:39:48;;;;;;;14.03;4.17;;;;;;;;;;5080718;28;20203;-57
2021/12/28 14:42:19;;;;;;;10.73;3.53;;;;;;;;;;5059458;28;20184;-57
2021/12/28 14:44:47;;;;;;;7.20;3.27;;;;;;;;;;5055879;28;20184;-57
2021/12/28 14:47:18;;;;;;;9.13;3.63;;;;;;;;;;5063041;28;20444;-57
2021/12/28 14:49:45;;;;;;;13.83;3.73;;;;;;;;;;5065828;28;20184;-57